sensor_id;sensor_type;location;lat;lon;timestamp;pressure;altitude;pressure_sealevel;temperature;humidity
21504;BME280;10913;51.992;9.228;2023-05-09T00:02:05;100650.31;;;14.26;82.16
21504;BME280;10913;51.992;9.228;2023-05-09T00:04:32;100648.63;;;14.20;82.43
21504;BME280;10913;51.992;9.228;2023-05-09T00:06:58;100650.53;;;14.13;82.70
21504;BME280;10913;51.992;9.228;2023-05-09T00:09:24;100647.06;;;14.08;83.27
21504;BME280;10913;51.992;9.228;2023-05-09T00:11:49;100647.09;;;14.05;83.12
21504;BME280;10913;51.992;9.228;2023-05-09T00:14:15;100645.38;;;14.03;83.11
21504;BME280;10913;51.992;9.228;2023-05-09T00:16:43;100648.97;;;13.99;83.03
21504;BME280;10913;51.992;9.228;2023-05-09T00:19:08;100652.56;;;13.96;83.10
21504;BME280;10913;51.992;9.228;2023-05-09T00:21:34;100647.34;;;13.90;83.31
21504;BME280;10913;51.992;9.228;2023-05-09T00:23:59;100647.41;;;13.86;83.48
21504;BME280;10913;51.992;9.228;2023-05-09T00:26:26;100652.78;;;13.81;83.59
21504;BME280;10913;51.992;9.228;2023-05-09T00:28:51;100644.91;;;13.76;83.97
21504;BME280;10913;51.992;9.228;2023-05-09T00:31:17;100650.31;;;13.69;84.70
21504;BME280;10913;51.992;9.228;2023-05-09T00:33:42;100644.16;;;13.64;84.96
21504;BME280;10913;51.992;9.228;2023-05-09T00:36:07;100642.44;;;13.60;84.96
21504;BME280;10913;51.992;9.228;2023-05-09T00:38:33;100635.41;;;13.59;85.55
21504;BME280;10913;51.992;9.228;2023-05-09T00:40:58;100634.53;;;13.58;85.35
21504;BME280;10913;51.992;9.228;2023-05-09T00:43:23;100633.69;;;13.55;85.68
21504;BME280;10913;51.992;9.228;2023-05-09T00:45:49;100631.94;;;13.54;86.37
21504;BME280;10913;51.992;9.228;2023-05-09T00:48:15;100635.47;;;13.53;86.40
21504;BME280;10913;51.992;9.228;2023-05-09T00:50:41;100630.19;;;13.53;86.15
21504;BME280;10913;51.992;9.228;2023-05-09T00:53:07;100622.25;;;13.48;86.16
21504;BME280;10913;51.992;9.228;2023-05-09T00:55:33;100617.00;;;13.43;85.62
21504;BME280;10913;51.992;9.228;2023-05-09T00:57:58;100623.25;;;13.39;85.82
21504;BME280;10913;51.992;9.228;2023-05-09T01:00:24;100622.44;;;13.36;85.79
21504;BME280;10913;51.992;9.228;2023-05-09T01:02:52;100618.97;;;13.31;86.03
21504;BME280;10913;51.992;9.228;2023-05-09T01:05:18;100619.88;;;13.27;86.25
21504;BME280;10913;51.992;9.228;2023-05-09T01:08:00;100613.75;;;13.23;86.45
21504;BME280;10913;51.992;9.228;2023-05-09T01:10:42;100608.47;;;13.20;86.95
21504;BME280;10913;51.992;9.228;2023-05-09T01:15:53;100609.44;;;13.16;86.76
21504;BME280;10913;51.992;9.228;2023-05-09T01:18:33;100602.38;;;13.12;86.79
21504;BME280;10913;51.992;9.228;2023-05-09T01:21:04;100601.50;;;13.10;86.88
21504;BME280;10913;51.992;9.228;2023-05-09T01:26:05;100602.44;;;13.06;87.02
21504;BME280;10913;51.992;9.228;2023-05-09T01:31:17;100594.53;;;13.00;87.68
21504;BME280;10913;51.992;9.228;2023-05-09T01:33:45;100589.28;;;12.98;87.68
21504;BME280;10913;51.992;9.228;2023-05-09T01:36:15;100589.31;;;12.95;87.82
21504;BME280;10913;51.992;9.228;2023-05-09T01:38:43;100590.25;;;12.90;87.93
21504;BME280;10913;51.992;9.228;2023-05-09T01:41:09;100582.34;;;12.85;88.15
21504;BME280;10913;51.992;9.228;2023-05-09T01:43:37;100589.47;;;12.80;88.05
21504;BME280;10913;51.992;9.228;2023-05-09T01:46:04;100592.19;;;12.75;88.31
21504;BME280;10913;51.992;9.228;2023-05-09T01:48:30;100579.88;;;12.68;88.81
21504;BME280;10913;51.992;9.228;2023-05-09T01:50:56;100584.34;;;12.63;88.59
21504;BME280;10913;51.992;9.228;2023-05-09T01:53:23;100582.59;;;12.61;88.99
21504;BME280;10913;51.992;9.228;2023-05-09T01:55:49;100585.31;;;12.56;88.76
21504;BME280;10913;51.992;9.228;2023-05-09T01:58:17;100586.19;;;12.57;88.85
21504;BME280;10913;51.992;9.228;2023-05-09T02:00:44;100583.56;;;12.55;88.95
21504;BME280;10913;51.992;9.228;2023-05-09T02:03:11;100584.47;;;12.51;89.14
21504;BME280;10913;51.992;9.228;2023-05-09T02:05:37;100581.88;;;12.45;89.38
21504;BME280;10913;51.992;9.228;2023-05-09T02:08:03;100587.22;;;12.42;89.35
21504;BME280;10913;51.992;9.228;2023-05-09T02:10:29;100585.50;;;12.38;89.30
21504;BME280;10913;51.992;9.228;2023-05-09T02:12:55;100590.81;;;12.35;89.39
21504;BME280;10913;51.992;9.228;2023-05-09T02:15:22;100587.31;;;12.33;89.34
21504;BME280;10913;51.992;9.228;2023-05-09T02:17:47;100577.63;;;12.29;89.15
21504;BME280;10913;51.992;9.228;2023-05-09T02:20:13;100580.31;;;12.26;89.61
21504;BME280;10913;51.992;9.228;2023-05-09T02:22:39;100575.91;;;12.22;89.64
21504;BME280;10913;51.992;9.228;2023-05-09T02:25:09;100570.69;;;12.17;89.89
21504;BME280;10913;51.992;9.228;2023-05-09T02:27:37;100570.69;;;12.16;90.10
21504;BME280;10913;51.992;9.228;2023-05-09T02:30:06;100568.03;;;12.16;90.29
21504;BME280;10913;51.992;9.228;2023-05-09T02:32:33;100568.03;;;12.16;90.48
21504;BME280;10913;51.992;9.228;2023-05-09T02:35:01;100568.03;;;12.16;90.47
21504;BME280;10913;51.992;9.228;2023-05-09T02:37:28;100564.50;;;12.17;90.45
21504;BME280;10913;51.992;9.228;2023-05-09T02:39:54;100564.50;;;12.18;90.10
21504;BME280;10913;51.992;9.228;2023-05-09T02:42:22;100566.22;;;12.19;89.85
21504;BME280;10913;51.992;9.228;2023-05-09T02:44:52;100568.03;;;12.19;89.78
21504;BME280;10913;51.992;9.228;2023-05-09T02:47:18;100564.44;;;12.23;89.53
21504;BME280;10913;51.992;9.228;2023-05-09T02:49:43;100560.00;;;12.26;89.26
21504;BME280;10913;51.992;9.228;2023-05-09T02:52:09;100559.09;;;12.26;88.93
21504;BME280;10913;51.992;9.228;2023-05-09T02:54:35;100557.34;;;12.25;89.20
21504;BME280;10913;51.992;9.228;2023-05-09T02:57:01;100550.28;;;12.24;89.31
21504;BME280;10913;51.992;9.228;2023-05-09T02:59:26;100551.19;;;12.23;89.37
21504;BME280;10913;51.992;9.228;2023-05-09T03:01:52;100545.06;;;12.18;90.11
21504;BME280;10913;51.992;9.228;2023-05-09T03:04:17;100542.38;;;12.19;90.29
21504;BME280;10913;51.992;9.228;2023-05-09T03:06:43;100544.19;;;12.19;90.36
21504;BME280;10913;51.992;9.228;2023-05-09T03:09:09;100545.03;;;12.21;90.82
21504;BME280;10913;51.992;9.228;2023-05-09T03:11:35;100536.25;;;12.19;90.74
21504;BME280;10913;51.992;9.228;2023-05-09T03:14:03;100537.16;;;12.16;90.75
21504;BME280;10913;51.992;9.228;2023-05-09T03:16:29;100534.53;;;12.12;90.93
21504;BME280;10913;51.992;9.228;2023-05-09T03:18:55;100536.34;;;12.06;91.48
21504;BME280;10913;51.992;9.228;2023-05-09T03:21:20;100524.00;;;12.02;91.79
21504;BME280;10913;51.992;9.228;2023-05-09T03:23:46;100528.41;;;12.02;92.07
21504;BME280;10913;51.992;9.228;2023-05-09T03:26:11;100525.78;;;12.00;92.61
21504;BME280;10913;51.992;9.228;2023-05-09T03:28:37;100531.13;;;11.97;92.66
21504;BME280;10913;51.992;9.228;2023-05-09T03:31:02;100529.41;;;11.93;92.72
21504;BME280;10913;51.992;9.228;2023-05-09T03:33:28;100523.22;;;11.93;93.01
21504;BME280;10913;51.992;9.228;2023-05-09T03:35:54;100523.22;;;11.93;92.96
21504;BME280;10913;51.992;9.228;2023-05-09T03:38:19;100520.59;;;11.91;93.13
21504;BME280;10913;51.992;9.228;2023-05-09T03:40:48;100524.13;;;11.90;93.35
21504;BME280;10913;51.992;9.228;2023-05-09T03:43:13;100525.91;;;11.90;93.48
21504;BME280;10913;51.992;9.228;2023-05-09T03:45:39;100523.25;;;11.91;93.52
21504;BME280;10913;51.992;9.228;2023-05-09T03:48:04;100524.97;;;11.94;93.42
21504;BME280;10913;51.992;9.228;2023-05-09T03:50:32;100511.75;;;11.95;93.21
21504;BME280;10913;51.992;9.228;2023-05-09T03:52:57;100515.28;;;11.94;93.42
21504;BME280;10913;51.992;9.228;2023-05-09T03:55:23;100510.84;;;11.96;93.29
21504;BME280;10913;51.992;9.228;2023-05-09T03:57:48;100511.72;;;11.98;93.21
21504;BME280;10913;51.992;9.228;2023-05-09T04:00:14;100500.19;;;12.02;93.17
21504;BME280;10913;51.992;9.228;2023-05-09T04:02:40;100502.81;;;12.02;93.24
21504;BME280;10913;51.992;9.228;2023-05-09T04:05:06;100491.31;;;12.05;92.90
21504;BME280;10913;51.992;9.228;2023-05-09T04:07:32;100503.66;;;12.07;92.72
21504;BME280;10913;51.992;9.228;2023-05-09T04:09:57;100502.78;;;12.08;92.76
21504;BME280;10913;51.992;9.228;2023-05-09T04:12:23;100507.16;;;12.11;92.67
21504;BME280;10913;51.992;9.228;2023-05-09T04:14:48;100499.22;;;12.13;92.58
21504;BME280;10913;51.992;9.228;2023-05-09T04:17:14;100500.97;;;12.12;92.60
21504;BME280;10913;51.992;9.228;2023-05-09T04:19:39;100502.75;;;12.13;92.66
21504;BME280;10913;51.992;9.228;2023-05-09T04:22:05;100500.09;;;12.13;93.08
21504;BME280;10913;51.992;9.228;2023-05-09T04:24:30;100500.97;;;12.14;92.71
21504;BME280;10913;51.992;9.228;2023-05-09T04:26:56;100501.84;;;12.14;92.94
21504;BME280;10913;51.992;9.228;2023-05-09T04:29:21;100500.06;;;12.16;92.85
21504;BME280;10913;51.992;9.228;2023-05-09T04:31:47;100487.69;;;12.18;92.97
21504;BME280;10913;51.992;9.228;2023-05-09T04:34:12;100484.09;;;12.22;92.86
21504;BME280;10913;51.992;9.228;2023-05-09T04:36:37;100484.06;;;12.25;92.63
21504;BME280;10913;51.992;9.228;2023-05-09T04:39:03;100480.50;;;12.28;92.70
21504;BME280;10913;51.992;9.228;2023-05-09T04:41:32;100483.13;;;12.31;92.73
21504;BME280;10913;51.992;9.228;2023-05-09T04:43:57;100483.97;;;12.36;92.51
21504;BME280;10913;51.992;9.228;2023-05-09T04:46:23;100484.75;;;12.41;92.56
21504;BME280;10913;51.992;9.228;2023-05-09T04:48:48;100486.47;;;12.47;92.03
21504;BME280;10913;51.992;9.228;2023-05-09T04:51:14;100487.28;;;12.53;91.86
21504;BME280;10913;51.992;9.228;2023-05-09T04:53:39;100481.06;;;12.57;91.61
21504;BME280;10913;51.992;9.228;2023-05-09T04:56:05;100480.09;;;12.61;91.51
21504;BME280;10913;51.992;9.228;2023-05-09T04:58:30;100476.50;;;12.67;91.29
21504;BME280;10913;51.992;9.228;2023-05-09T05:00:57;100478.19;;;12.74;90.93
21504;BME280;10913;51.992;9.228;2023-05-09T05:03:22;100468.34;;;12.84;90.90
21504;BME280;10913;51.992;9.228;2023-05-09T05:05:48;100462.94;;;12.93;91.19
21504;BME280;10913;51.992;9.228;2023-05-09T05:08:13;100467.16;;;13.04;91.22
21504;BME280;10913;51.992;9.228;2023-05-09T05:10:39;100466.16;;;13.18;90.87
21504;BME280;10913;51.992;9.228;2023-05-09T05:13:04;100461.53;;;13.30;90.24
21504;BME280;10913;51.992;9.228;2023-05-09T05:15:30;100457.78;;;13.42;89.66
21504;BME280;10913;51.992;9.228;2023-05-09T05:17:55;100462.94;;;13.54;89.35
21504;BME280;10913;51.992;9.228;2023-05-09T05:20:20;100452.97;;;13.67;88.78
21504;BME280;10913;51.992;9.228;2023-05-09T05:22:46;100452.75;;;13.79;87.61
21504;BME280;10913;51.992;9.228;2023-05-09T05:25:11;100449.00;;;13.92;86.87
21504;BME280;10913;51.992;9.228;2023-05-09T05:27:37;100447.81;;;14.07;86.20
21504;BME280;10913;51.992;9.228;2023-05-09T05:30:03;100439.66;;;14.18;85.81
21504;BME280;10913;51.992;9.228;2023-05-09T05:32:28;100434.09;;;14.30;85.73
21504;BME280;10913;51.992;9.228;2023-05-09T05:34:53;100428.50;;;14.45;85.77
21504;BME280;10913;51.992;9.228;2023-05-09T05:37:19;100423.91;;;14.53;83.26
21504;BME280;10913;51.992;9.228;2023-05-09T05:39:44;100430.03;;;14.58;81.47
21504;BME280;10913;51.992;9.228;2023-05-09T05:42:10;100434.16;;;14.71;81.41
21504;BME280;10913;51.992;9.228;2023-05-09T05:44:35;100431.28;;;14.80;81.00
21504;BME280;10913;51.992;9.228;2023-05-09T05:47:00;100418.66;;;14.92;80.69
21504;BME280;10913;51.992;9.228;2023-05-09T05:49:26;100422.72;;;15.06;80.38
21504;BME280;10913;51.992;9.228;2023-05-09T05:51:51;100415.44;;;15.16;80.54
21504;BME280;10913;51.992;9.228;2023-05-09T05:54:16;100418.72;;;15.26;80.25
21504;BME280;10913;51.992;9.228;2023-05-09T05:56:42;100424.72;;;15.35;79.97
21504;BME280;10913;51.992;9.228;2023-05-09T05:59:07;100423.59;;;15.44;80.35
21504;BME280;10913;51.992;9.228;2023-05-09T06:01:32;100430.47;;;15.56;78.37
21504;BME280;10913;51.992;9.228;2023-05-09T06:03:58;100424.22;;;15.57;78.05
21504;BME280;10913;51.992;9.228;2023-05-09T06:06:25;100421.56;;;15.55;77.53
21504;BME280;10913;51.992;9.228;2023-05-09T06:08:50;100421.56;;;15.57;78.85
21504;BME280;10913;51.992;9.228;2023-05-09T06:11:16;100408.94;;;15.63;78.60
21504;BME280;10913;51.992;9.228;2023-05-09T06:13:42;100415.84;;;15.72;77.12
21504;BME280;10913;51.992;9.228;2023-05-09T06:16:07;100418.34;;;15.78;76.68
21504;BME280;10913;51.992;9.228;2023-05-09T06:18:34;100417.25;;;15.85;75.97
21504;BME280;10913;51.992;9.228;2023-05-09T06:21:02;100407.34;;;15.90;75.06
21504;BME280;10913;51.992;9.228;2023-05-09T06:23:27;100403.63;;;15.97;75.71
21504;BME280;10913;51.992;9.228;2023-05-09T06:25:53;100399.22;;;15.96;75.92
21504;BME280;10913;51.992;9.228;2023-05-09T06:28:18;100387.44;;;16.03;75.55
21504;BME280;10913;51.992;9.228;2023-05-09T06:30:43;100385.50;;;16.10;74.88
21504;BME280;10913;51.992;9.228;2023-05-09T06:33:09;100385.47;;;16.11;74.62
21504;BME280;10913;51.992;9.228;2023-05-09T06:35:34;100371.28;;;16.09;75.01
21504;BME280;10913;51.992;9.228;2023-05-09T06:38:00;100371.22;;;16.12;75.00
21504;BME280;10913;51.992;9.228;2023-05-09T06:40:25;100374.63;;;16.17;76.11
21504;BME280;10913;51.992;9.228;2023-05-09T06:42:50;100380.47;;;16.30;76.26
21504;BME280;10913;51.992;9.228;2023-05-09T06:45:16;100364.34;;;16.35;76.03
21504;BME280;10913;51.992;9.228;2023-05-09T06:47:41;100365.81;;;16.45;75.52
21504;BME280;10913;51.992;9.228;2023-05-09T06:50:07;100368.22;;;16.54;75.56
21504;BME280;10913;51.992;9.228;2023-05-09T06:52:32;100361.81;;;16.60;74.06
21504;BME280;10913;51.992;9.228;2023-05-09T06:54:58;100361.56;;;16.69;74.18
21504;BME280;10913;51.992;9.228;2023-05-09T06:57:23;100357.91;;;16.73;74.74
21504;BME280;10913;51.992;9.228;2023-05-09T06:59:49;100353.28;;;16.78;75.36
21504;BME280;10913;51.992;9.228;2023-05-09T07:02:14;100346.88;;;16.83;75.10
21504;BME280;10913;51.992;9.228;2023-05-09T07:04:40;100354.50;;;16.96;74.29
21504;BME280;10913;51.992;9.228;2023-05-09T07:07:05;100346.28;;;17.02;73.55
21504;BME280;10913;51.992;9.228;2023-05-09T07:09:31;100345.06;;;17.12;74.03
21504;BME280;10913;51.992;9.228;2023-05-09T07:11:58;100333.09;;;17.23;74.52
21504;BME280;10913;51.992;9.228;2023-05-09T07:14:24;100322.75;;;17.39;73.94
21504;BME280;10913;51.992;9.228;2023-05-09T07:16:49;100324.16;;;17.51;73.52
21504;BME280;10913;51.992;9.228;2023-05-09T07:19:15;100327.50;;;17.58;72.90
21504;BME280;10913;51.992;9.228;2023-05-09T07:21:40;100309.50;;;17.63;72.60
21504;BME280;10913;51.992;9.228;2023-05-09T07:24:06;100313.19;;;17.58;72.70
21504;BME280;10913;51.992;9.228;2023-05-09T07:26:31;100309.31;;;17.69;72.69
21504;BME280;10913;51.992;9.228;2023-05-09T07:28:56;100309.00;;;17.78;72.67
21504;BME280;10913;51.992;9.228;2023-05-09T07:31:22;100307.56;;;17.93;73.61
21504;BME280;10913;51.992;9.228;2023-05-09T07:33:47;100304.84;;;18.17;72.95
21504;BME280;10913;51.992;9.228;2023-05-09T07:36:13;100295.97;;;18.39;72.86
21504;BME280;10913;51.992;9.228;2023-05-09T07:38:40;100291.63;;;18.59;72.12
21504;BME280;10913;51.992;9.228;2023-05-09T07:41:05;100300.41;;;18.85;71.34
21504;BME280;10913;51.992;9.228;2023-05-09T07:43:31;100287.72;;;19.12;70.63
21504;BME280;10913;51.992;9.228;2023-05-09T07:45:56;100278.19;;;20.06;68.05
21504;BME280;10913;51.992;9.228;2023-05-09T07:48:22;100272.59;;;21.39;65.16
21504;BME280;10913;51.992;9.228;2023-05-09T07:50:47;100276.13;;;22.24;63.58
21504;BME280;10913;51.992;9.228;2023-05-09T07:53:13;100266.88;;;22.46;62.66
21504;BME280;10913;51.992;9.228;2023-05-09T07:55:38;100273.50;;;21.90;64.42
21504;BME280;10913;51.992;9.228;2023-05-09T07:58:04;100263.63;;;21.57;65.33
21504;BME280;10913;51.992;9.228;2023-05-09T08:00:29;100255.28;;;21.62;65.72
21504;BME280;10913;51.992;9.228;2023-05-09T08:02:55;100261.47;;;21.47;66.28
21504;BME280;10913;51.992;9.228;2023-05-09T08:05:20;100246.16;;;21.31;66.66
21504;BME280;10913;51.992;9.228;2023-05-09T08:07:46;100251.34;;;21.17;67.01
21504;BME280;10913;51.992;9.228;2023-05-09T08:10:11;100250.78;;;21.11;68.17
21504;BME280;10913;51.992;9.228;2023-05-09T08:12:37;100243.88;;;21.05;68.29
21504;BME280;10913;51.992;9.228;2023-05-09T08:15:04;100241.91;;;21.09;68.61
21504;BME280;10913;51.992;9.228;2023-05-09T08:17:30;100237.47;;;21.08;68.16
21504;BME280;10913;51.992;9.228;2023-05-09T08:19:55;100240.53;;;21.00;69.01
21504;BME280;10913;51.992;9.228;2023-05-09T08:22:20;100233.69;;;21.12;69.70
21504;BME280;10913;51.992;9.228;2023-05-09T08:24:46;100227.63;;;21.25;69.70
21504;BME280;10913;51.992;9.228;2023-05-09T08:27:12;100225.34;;;21.35;69.12
21504;BME280;10913;51.992;9.228;2023-05-09T08:29:38;100225.09;;;21.22;68.57
21504;BME280;10913;51.992;9.228;2023-05-09T08:32:04;100222.50;;;21.21;68.56
21504;BME280;10913;51.992;9.228;2023-05-09T08:34:29;100220.03;;;21.51;68.18
21504;BME280;10913;51.992;9.228;2023-05-09T08:37:02;100218.31;;;21.50;68.08
21504;BME280;10913;51.992;9.228;2023-05-09T08:39:29;100220.09;;;21.66;69.27
21504;BME280;10913;51.992;9.228;2023-05-09T08:41:58;100215.97;;;21.77;67.42
21504;BME280;10913;51.992;9.228;2023-05-09T08:44:25;100227.78;;;21.90;68.15
21504;BME280;10913;51.992;9.228;2023-05-09T08:46:57;100212.75;;;21.86;68.49
21504;BME280;10913;51.992;9.228;2023-05-09T08:49:23;100213.88;;;21.82;68.43
21504;BME280;10913;51.992;9.228;2023-05-09T08:51:49;100206.09;;;21.93;67.65
21504;BME280;10913;51.992;9.228;2023-05-09T08:54:15;100206.19;;;21.91;67.62
21504;BME280;10913;51.992;9.228;2023-05-09T08:56:41;100200.22;;;22.02;67.70
21504;BME280;10913;51.992;9.228;2023-05-09T08:59:07;100197.41;;;21.88;68.04
21504;BME280;10913;51.992;9.228;2023-05-09T09:01:33;100189.50;;;21.85;68.15
21504;BME280;10913;51.992;9.228;2023-05-09T09:04:04;100186.66;;;21.88;67.87
21504;BME280;10913;51.992;9.228;2023-05-09T09:06:35;100189.97;;;21.93;68.48
21504;BME280;10913;51.992;9.228;2023-05-09T09:09:01;100181.72;;;21.96;67.47
21504;BME280;10913;51.992;9.228;2023-05-09T09:11:27;100192.03;;;21.88;67.88
21504;BME280;10913;51.992;9.228;2023-05-09T09:13:54;100180.16;;;21.92;67.65
21504;BME280;10913;51.992;9.228;2023-05-09T09:16:24;100175.38;;;21.97;69.13
21504;BME280;10913;51.992;9.228;2023-05-09T09:18:53;100176.38;;;22.12;67.63
21504;BME280;10913;51.992;9.228;2023-05-09T09:21:19;100186.19;;;22.13;67.20
21504;BME280;10913;51.992;9.228;2023-05-09T09:23:46;100165.13;;;21.88;67.89
21504;BME280;10913;51.992;9.228;2023-05-09T09:26:12;100162.44;;;21.88;67.89
21504;BME280;10913;51.992;9.228;2023-05-09T09:28:38;100159.50;;;21.92;67.62
21504;BME280;10913;51.992;9.228;2023-05-09T09:31:22;100160.13;;;21.97;67.49
21504;BME280;10913;51.992;9.228;2023-05-09T09:33:49;100160.97;;;21.98;67.16
21504;BME280;10913;51.992;9.228;2023-05-09T09:36:15;100144.69;;;22.01;67.48
21504;BME280;10913;51.992;9.228;2023-05-09T09:38:41;100149.84;;;21.88;68.27
21504;BME280;10913;51.992;9.228;2023-05-09T09:41:08;100142.66;;;21.89;68.14
21504;BME280;10913;51.992;9.228;2023-05-09T09:43:35;100143.28;;;21.94;67.42
21504;BME280;10913;51.992;9.228;2023-05-09T09:46:02;100137.19;;;21.90;66.46
21504;BME280;10913;51.992;9.228;2023-05-09T09:48:34;100147.00;;;21.91;66.30
21504;BME280;10913;51.992;9.228;2023-05-09T09:51:08;100134.66;;;21.72;67.35
21504;BME280;10913;51.992;9.228;2023-05-09T09:53:43;100130.84;;;21.76;67.05
21504;BME280;10913;51.992;9.228;2023-05-09T09:56:09;100122.09;;;21.72;66.73
21504;BME280;10913;51.992;9.228;2023-05-09T09:58:35;100121.38;;;21.69;66.82
21504;BME280;10913;51.992;9.228;2023-05-09T10:01:11;100115.84;;;21.72;68.07
21504;BME280;10913;51.992;9.228;2023-05-09T10:03:44;100108.31;;;21.94;67.25
21504;BME280;10913;51.992;9.228;2023-05-09T10:06:11;100106.19;;;21.99;66.97
21504;BME280;10913;51.992;9.228;2023-05-09T10:08:38;100104.75;;;22.09;65.81
21504;BME280;10913;51.992;9.228;2023-05-09T10:11:04;100100.56;;;22.19;66.19
21504;BME280;10913;51.992;9.228;2023-05-09T10:13:29;100108.66;;;22.35;65.54
21504;BME280;10913;51.992;9.228;2023-05-09T10:15:56;100099.75;;;22.49;65.80
21504;BME280;10913;51.992;9.228;2023-05-09T10:18:29;100094.41;;;22.63;65.07
21504;BME280;10913;51.992;9.228;2023-05-09T10:20:58;100097.19;;;22.61;64.81
21504;BME280;10913;51.992;9.228;2023-05-09T10:23:27;100091.97;;;22.58;64.78
21504;BME280;10913;51.992;9.228;2023-05-09T10:28:31;100074.66;;;22.78;63.87
21504;BME280;10913;51.992;9.228;2023-05-09T10:31:24;100080.31;;;22.74;65.19
21504;BME280;10913;51.992;9.228;2023-05-09T10:33:51;100063.97;;;22.77;64.36
21504;BME280;10913;51.992;9.228;2023-05-09T10:36:18;100056.13;;;22.88;64.52
21504;BME280;10913;51.992;9.228;2023-05-09T10:38:46;100047.53;;;22.81;64.01
21504;BME280;10913;51.992;9.228;2023-05-09T10:41:12;100048.03;;;23.02;65.80
21504;BME280;10913;51.992;9.228;2023-05-09T10:43:38;100050.47;;;23.07;63.46
21504;BME280;10913;51.992;9.228;2023-05-09T10:46:04;100051.91;;;23.12;64.31
21504;BME280;10913;51.992;9.228;2023-05-09T10:48:32;100040.84;;;23.17;64.13
21504;BME280;10913;51.992;9.228;2023-05-09T10:51:02;100043.34;;;23.06;64.01
21504;BME280;10913;51.992;9.228;2023-05-09T10:53:48;100030.81;;;22.90;63.67
21504;BME280;10913;51.992;9.228;2023-05-09T10:56:32;100030.63;;;22.93;64.20
21504;BME280;10913;51.992;9.228;2023-05-09T10:58:58;100025.44;;;22.90;63.93
21504;BME280;10913;51.992;9.228;2023-05-09T11:01:37;100027.53;;;22.99;64.69
21504;BME280;10913;51.992;9.228;2023-05-09T11:04:10;100019.28;;;23.17;63.23
21504;BME280;10913;51.992;9.228;2023-05-09T11:06:49;100023.69;;;23.03;63.68
21504;BME280;10913;51.992;9.228;2023-05-09T11:09:34;100021.59;;;23.09;63.86
21504;BME280;10913;51.992;9.228;2023-05-09T11:12:11;100017.94;;;22.95;64.15
21504;BME280;10913;51.992;9.228;2023-05-09T11:14:45;100010.81;;;23.09;65.78
21504;BME280;10913;51.992;9.228;2023-05-09T11:17:27;100001.75;;;23.38;64.05
21504;BME280;10913;51.992;9.228;2023-05-09T11:20:20;100006.19;;;23.53;64.67
21504;BME280;10913;51.992;9.228;2023-05-09T11:22:52;100011.75;;;23.50;62.69
21504;BME280;10913;51.992;9.228;2023-05-09T11:25:24;99994.22;;;23.43;62.99
21504;BME280;10913;51.992;9.228;2023-05-09T11:27:57;99997.00;;;23.42;62.81
21504;BME280;10913;51.992;9.228;2023-05-09T11:30:34;99984.09;;;23.47;63.90
21504;BME280;10913;51.992;9.228;2023-05-09T11:33:00;99978.59;;;23.62;63.81
21504;BME280;10913;51.992;9.228;2023-05-09T11:35:26;99978.19;;;23.68;63.07
21504;BME280;10913;51.992;9.228;2023-05-09T11:37:58;99973.88;;;23.66;63.03
21504;BME280;10913;51.992;9.228;2023-05-09T11:40:25;99966.50;;;23.55;62.42
21504;BME280;10913;51.992;9.228;2023-05-09T11:42:55;99963.19;;;23.64;62.91
21504;BME280;10913;51.992;9.228;2023-05-09T11:45:22;99967.25;;;23.43;62.13
21504;BME280;10913;51.992;9.228;2023-05-09T11:47:49;99969.97;;;23.57;62.28
21504;BME280;10913;51.992;9.228;2023-05-09T11:50:17;99961.97;;;23.56;61.43
21504;BME280;10913;51.992;9.228;2023-05-09T11:52:43;99962.22;;;23.51;63.08
21504;BME280;10913;51.992;9.228;2023-05-09T12:09:44;99951.97;;;23.29;62.82
21504;BME280;10913;51.992;9.228;2023-05-09T12:12:12;99965.06;;;23.35;63.73
21504;BME280;10913;51.992;9.228;2023-05-09T12:14:39;99940.91;;;23.34;64.30
21504;BME280;10913;51.992;9.228;2023-05-09T12:17:06;99945.47;;;23.05;63.95
21504;BME280;10913;51.992;9.228;2023-05-09T12:19:32;99936.72;;;22.87;64.43
21504;BME280;10913;51.992;9.228;2023-05-09T12:21:59;99930.19;;;22.91;64.01
21504;BME280;10913;51.992;9.228;2023-05-09T12:24:26;99957.38;;;22.73;64.40
21504;BME280;10913;51.992;9.228;2023-05-09T12:26:52;99942.16;;;22.72;65.26
21504;BME280;10913;51.992;9.228;2023-05-09T12:29:19;99933.13;;;22.73;66.22
21504;BME280;10913;51.992;9.228;2023-05-09T12:31:45;99932.16;;;22.74;64.69
21504;BME280;10913;51.992;9.228;2023-05-09T12:34:11;99921.41;;;22.74;64.10
21504;BME280;10913;51.992;9.228;2023-05-09T12:36:37;99920.63;;;22.72;64.77
21504;BME280;10913;51.992;9.228;2023-05-09T12:39:07;99916.66;;;22.63;64.60
21504;BME280;10913;51.992;9.228;2023-05-09T12:41:34;99917.06;;;22.57;65.16
21504;BME280;10913;51.992;9.228;2023-05-09T12:44:06;99910.13;;;22.67;66.47
21504;BME280;10913;51.992;9.228;2023-05-09T12:46:32;99906.69;;;22.79;65.09
21504;BME280;10913;51.992;9.228;2023-05-09T12:48:57;99904.56;;;22.84;64.35
21504;BME280;10913;51.992;9.228;2023-05-09T12:51:23;99894.56;;;22.86;64.75
21504;BME280;10913;51.992;9.228;2023-05-09T12:53:48;99897.94;;;22.90;64.25
21504;BME280;10913;51.992;9.228;2023-05-09T12:56:18;99882.81;;;23.01;65.63
21504;BME280;10913;51.992;9.228;2023-05-09T12:58:54;99886.94;;;23.07;64.40
21504;BME280;10913;51.992;9.228;2023-05-09T13:01:22;99878.75;;;23.09;64.23
21504;BME280;10913;51.992;9.228;2023-05-09T13:03:52;99876.72;;;23.12;64.79
21504;BME280;10913;51.992;9.228;2023-05-09T13:06:24;99869.22;;;23.17;63.33
21504;BME280;10913;51.992;9.228;2023-05-09T13:08:59;99867.44;;;23.30;63.49
21504;BME280;10913;51.992;9.228;2023-05-09T13:11:26;99860.59;;;23.25;62.76
21504;BME280;10913;51.992;9.228;2023-05-09T13:13:53;99866.38;;;23.33;62.77
21504;BME280;10913;51.992;9.228;2023-05-09T13:16:18;99859.47;;;23.42;63.80